Time;durP1;ratioP1;P1;durP2;ratioP2;P2;SDS_P1;SDS_P2;PMS_P1;PMS_P2;Temp;Humidity;BMP_temperature;BMP_pressure;BME280_temperature;BME280_humidity;BME280_pressure;Samples;Min_cycle;Max_cycle;Signal;HPM_P1;HPM_P2
2022/03/11 00:02:06;;;;;;;32.83;21.13;;;2.70;50.70;;;1.07;62.48;98596.91;5024746;28;20852;-72
2022/03/11 00:04:33;;;;;;;31.63;20.30;;;2.60;50.80;;;1.09;62.53;98599.47;5023984;28;20563;-74
2022/03/11 00:07:00;;;;;;;28.10;19.57;;;2.60;51.00;;;0.91;62.69;98599.31;5023195;28;20471;-73
2022/03/11 00:09:27;;;;;;;34.33;20.50;;;2.40;51.10;;;0.87;62.79;98585.44;5022906;28;20459;-72
2022/03/11 00:11:54;;;;;;;27.23;20.23;;;2.40;51.40;;;0.92;63.00;98603.66;5022567;28;20483;-73
2022/03/11 00:14:21;;;;;;;30.27;20.43;;;2.40;51.40;;;0.88;63.16;98604.91;5024810;28;20474;-74
2022/03/11 00:16:49;;;;;;;34.40;21.90;;;2.40;51.50;;;0.82;63.28;98604.47;5020303;28;20451;-73
2022/03/11 00:19:16;;;;;;;30.77;20.90;;;2.30;51.70;;;0.84;63.39;98605.19;5027097;28;20548;-73
2022/03/11 00:21:43;;;;;;;28.83;20.67;;;2.30;51.70;;;0.70;63.58;98602.94;5026752;28;21209;-73
2022/03/11 00:24:10;;;;;;;28.10;20.00;;;2.20;51.90;;;0.25;63.78;98537.75;5025436;28;20460;-73
2022/03/11 00:26:37;;;;;;;30.13;22.60;;;2.20;52.00;;;0.75;63.92;98608.66;5025453;28;20454;-72
2022/03/11 00:29:05;;;;;;;29.20;19.93;;;2.20;52.20;;;0.77;63.65;98601.38;5028917;28;20551;-72
2022/03/11 00:31:32;;;;;;;35.13;22.30;;;2.20;52.20;;;0.68;63.99;98610.19;5034542;28;21024;-74
2022/03/11 00:34:00;;;;;;;30.00;21.77;;;2.20;52.30;;;0.54;63.96;98606.13;5022995;28;20901;-72
2022/03/11 00:36:27;;;;;;;29.07;21.80;;;2.10;52.50;;;0.56;64.20;98607.66;5027164;28;20458;-72
2022/03/11 00:38:54;;;;;;;32.00;20.60;;;2.10;52.70;;;0.55;64.55;98603.31;5022560;28;20447;-71
2022/03/11 00:41:21;;;;;;;29.20;20.97;;;2.00;52.80;;;0.55;64.54;98606.00;5023355;28;20555;-73
2022/03/11 00:43:48;;;;;;;29.23;20.77;;;2.00;52.80;;;0.23;64.94;98583.09;5022189;28;20464;-74
2022/03/11 00:46:15;;;;;;;29.10;20.37;;;1.90;52.90;;;0.41;64.76;98593.91;5021545;28;20527;-73
2022/03/11 00:48:42;;;;;;;29.87;21.47;;;1.90;53.30;;;0.45;64.76;98585.66;5022012;28;20564;-76
2022/03/11 00:51:10;;;;;;;26.30;19.70;;;1.90;53.50;;;0.36;64.83;98592.63;5019455;28;20588;-73
2022/03/11 00:53:37;;;;;;;35.70;21.70;;;1.90;53.30;;;0.42;64.76;98594.75;5022110;28;20480;-73
2022/03/11 00:56:05;;;;;;;30.03;20.30;;;1.80;53.40;;;0.32;65.07;98596.53;5019948;28;20545;-72
2022/03/11 00:58:32;;;;;;;33.83;23.73;;;1.80;53.30;;;0.25;65.39;98585.59;5023535;28;20860;-73
2022/03/11 01:00:59;;;;;;;30.30;20.30;;;1.80;53.40;;;0.09;65.84;98580.81;5024841;28;20540;-75
2022/03/11 01:03:26;;;;;;;29.60;21.77;;;1.70;53.60;;;0.07;65.75;98588.06;5023837;28;20465;-74
2022/03/11 01:05:53;;;;;;;29.63;21.97;;;1.60;53.90;;;0.17;65.69;98588.13;5026470;28;20492;-72
2022/03/11 01:08:21;;;;;;;31.73;20.20;;;1.60;54.20;;;-0.02;65.68;98552.50;5024541;28;20496;-73
2022/03/11 01:10:48;;;;;;;29.30;21.20;;;1.60;54.20;;;0.07;65.53;98580.09;5024805;28;22793;-72
2022/03/11 01:13:15;;;;;;;34.23;22.20;;;1.60;54.20;;;-0.01;65.50;98578.94;5024204;28;20449;-75
2022/03/11 01:15:42;;;;;;;32.30;20.83;;;1.60;54.30;;;-0.01;65.28;98581.59;5024726;28;20530;-73
2022/03/11 01:18:09;;;;;;;31.93;20.77;;;1.50;54.20;;;-0.02;65.86;98590.56;5023223;28;20487;-74
2022/03/11 01:20:36;;;;;;;33.10;20.60;;;1.50;54.30;;;-0.04;65.85;98589.00;5026893;28;20548;-72
2022/03/11 01:23:03;;;;;;;31.97;20.20;;;1.50;54.30;;;-0.01;65.44;98581.59;5023559;28;20462;-74
2022/03/11 01:25:32;;;;;;;30.47;21.20;;;1.50;54.40;;;-0.03;65.97;98582.72;5023271;28;21035;-75
2022/03/11 01:27:59;;;;;;;30.73;20.57;;;1.50;54.40;;;-0.13;65.83;98582.66;5025243;28;20465;-74
2022/03/11 01:30:26;;;;;;;31.43;21.70;;;1.40;54.40;;;-0.16;65.98;98589.09;5023633;28;20551;-74
2022/03/11 01:32:53;;;;;;;31.73;20.67;;;1.30;54.50;;;-0.22;66.27;98575.53;5022327;28;21105;-74
2022/03/11 01:35:20;;;;;;;27.77;20.70;;;1.30;54.70;;;-0.27;66.63;98575.06;5022766;28;20464;-74
2022/03/11 01:37:47;;;;;;;28.90;21.67;;;1.20;54.80;;;-0.26;65.96;98576.75;5019177;28;20516;-72
2022/03/11 01:40:14;;;;;;;30.60;19.93;;;1.30;54.80;;;-0.24;66.03;98569.47;5024091;28;20513;-72
2022/03/11 01:42:43;;;;;;;30.20;20.93;;;1.30;54.70;;;-0.30;65.76;98561.06;5025267;28;20571;-72
2022/03/11 01:45:10;;;;;;;32.90;21.43;;;1.20;54.70;;;-0.30;66.02;98566.38;5027840;28;20459;-74
2022/03/11 01:47:37;;;;;;;31.23;21.27;;;1.20;54.60;;;-0.38;65.89;98563.56;5043318;28;20782;-74
2022/03/11 01:50:05;;;;;;;32.40;20.23;;;1.10;54.70;;;-0.39;66.39;98561.84;5025104;28;20898;-71
2022/03/11 01:52:33;;;;;;;32.13;21.87;;;1.10;54.90;;;-0.65;66.51;98556.13;5025017;28;20473;-73
2022/03/11 01:55:00;;;;;;;30.10;20.17;;;1.00;54.90;;;-0.77;66.97;98552.72;5024010;28;20454;-74
2022/03/11 01:57:27;;;;;;;31.80;21.40;;;0.80;55.70;;;-0.69;67.35;98555.53;5025685;28;20559;-73
2022/03/11 01:59:57;;;;;;;30.87;21.40;;;0.80;55.60;;;-0.79;67.38;98554.66;5028035;28;20539;-75
2022/03/11 02:05:08;;;;;;;33.20;21.80;;;0.80;55.90;;;-0.61;66.80;98558.41;5441612;22;20643;-74
2022/03/11 02:07:35;;;;;;;33.50;21.17;;;0.90;55.50;;;-0.61;65.84;98553.09;5001070;28;20519;-73
2022/03/11 02:10:02;;;;;;;27.47;19.33;;;0.90;55.00;;;-0.55;65.74;98556.19;5009881;28;20526;-75
2022/03/11 02:12:30;;;;;;;26.70;19.40;;;0.90;54.80;;;-0.71;65.85;98552.19;5010920;28;21009;-73
2022/03/11 02:15:01;;;;;;;29.03;19.20;;;0.90;54.70;;;-0.74;65.28;98547.13;5006014;28;21197;-76
2022/03/11 02:17:28;;;;;;;29.30;19.67;;;0.80;54.50;;;-0.75;65.52;98548.13;5006565;28;20456;-74
2022/03/11 02:19:55;;;;;;;33.60;19.00;;;0.80;54.40;;;-0.75;65.04;98545.47;5019713;28;21325;-73
2022/03/11 02:22:25;;;;;;;25.23;17.53;;;0.70;54.20;;;-0.87;65.11;98547.34;5009519;28;20456;-74
2022/03/11 02:24:55;;;;;;;24.70;18.10;;;0.70;54.20;;;-0.88;64.65;98551.78;5009220;28;20498;-75
2022/03/11 02:27:23;;;;;;;29.10;18.37;;;0.70;53.60;;;-0.81;63.88;98544.16;5007498;28;20457;-74
2022/03/11 02:29:50;;;;;;;28.40;18.47;;;0.70;53.20;;;-0.81;63.38;98551.28;5003303;28;20559;-75
2022/03/11 02:32:17;;;;;;;25.97;17.50;;;0.70;52.80;;;-0.75;62.69;98550.75;5005524;28;20539;-74
2022/03/11 02:34:44;;;;;;;28.83;18.27;;;0.80;52.50;;;-0.87;62.81;98548.16;5005131;28;20509;-73
2022/03/11 02:37:11;;;;;;;26.00;17.10;;;0.80;52.10;;;-0.74;62.11;98544.47;5023166;28;20501;-74
2022/03/11 02:39:38;;;;;;;22.40;14.87;;;0.80;51.60;;;-0.83;61.84;98537.28;5025125;28;20607;-73
2022/03/11 02:42:07;;;;;;;18.80;13.93;;;0.80;51.30;;;-1.04;61.00;98501.00;5009146;28;20466;-73
2022/03/11 02:44:34;;;;;;;23.63;15.90;;;0.80;50.70;;;-0.82;61.34;98544.31;5003288;28;20538;-73
2022/03/11 02:47:01;;;;;;;23.27;16.60;;;0.80;50.70;;;-0.94;60.75;98512.53;5017755;28;21335;-73
2022/03/11 02:49:28;;;;;;;21.03;15.00;;;0.80;50.40;;;-0.78;59.91;98537.75;5011844;28;20459;-72
2022/03/11 02:51:57;;;;;;;27.80;14.70;;;0.80;49.90;;;-0.82;59.52;98531.88;5010637;28;20547;-74
2022/03/11 02:54:24;;;;;;;19.90;14.70;;;0.80;49.60;;;-0.87;59.95;98526.94;5009827;28;20454;-74
2022/03/11 02:56:51;;;;;;;22.20;14.63;;;0.70;49.50;;;-0.98;59.56;98516.41;5012087;28;20459;-73
2022/03/11 02:59:20;;;;;;;22.47;13.90;;;0.70;49.30;;;-0.91;59.47;98522.88;5009119;28;20977;-76
2022/03/11 03:01:47;;;;;;;21.53;13.93;;;0.70;49.00;;;-1.23;59.09;98484.00;5009382;28;20977;-73
2022/03/11 03:04:14;;;;;;;18.27;12.60;;;0.60;48.80;;;-0.95;58.07;98518.81;5005292;28;20495;-73
2022/03/11 03:06:41;;;;;;;20.10;12.90;;;0.60;48.20;;;-0.95;58.01;98529.41;5012136;28;21007;-73
2022/03/11 03:09:08;;;;;;;25.63;14.83;;;0.60;47.80;;;-0.98;58.26;98519.06;5029566;28;21175;-73
2022/03/11 03:11:37;;;;;;;21.97;14.23;;;0.60;47.70;;;-1.07;58.32;98519.84;5036401;28;20539;-74
2022/03/11 03:14:04;;;;;;;20.87;13.07;;;0.50;47.60;;;-1.44;57.43;98458.31;5012614;28;20478;-75
2022/03/11 03:16:33;;;;;;;18.40;12.23;;;0.50;47.30;;;-1.10;56.96;98536.00;5014388;28;20555;-73
2022/03/11 03:18:59;;;;;;;17.80;11.70;;;0.50;46.70;;;-1.18;57.06;98524.22;5018035;28;20454;-73
2022/03/11 03:21:27;;;;;;;19.47;12.07;;;0.50;46.60;;;-1.12;56.20;98511.44;5008683;28;20499;-72
2022/03/11 03:23:55;;;;;;;16.27;11.70;;;0.50;46.40;;;-1.23;56.90;98529.06;5008768;28;20459;-74
2022/03/11 03:26:22;;;;;;;19.80;13.13;;;0.40;46.20;;;-1.23;56.56;98518.47;5005920;28;20454;-72
2022/03/11 03:28:49;;;;;;;21.20;12.03;;;0.40;46.10;;;-1.24;55.72;98527.41;5007587;28;20554;-74
2022/03/11 03:31:19;;;;;;;20.87;10.13;;;0.30;45.70;;;-1.26;55.89;98521.38;5002949;28;20853;-73
2022/03/11 03:33:47;;;;;;;18.40;12.20;;;0.30;45.50;;;-1.30;56.03;98517.28;5003976;28;20484;-73
2022/03/11 03:36:14;;;;;;;16.50;11.70;;;0.30;45.60;;;-1.39;55.89;98510.09;5004223;28;20448;-73
2022/03/11 03:38:42;;;;;;;16.20;11.33;;;0.20;45.30;;;-1.45;55.97;98516.75;5005596;28;20467;-74
2022/03/11 03:41:09;;;;;;;15.90;11.67;;;0.20;45.40;;;-1.50;55.60;98511.81;5005486;28;20491;-72
2022/03/11 03:43:36;;;;;;;14.80;10.93;;;0.10;45.00;;;-1.52;55.52;98510.25;4999906;28;20516;-72
2022/03/11 03:46:03;;;;;;;16.47;10.10;;;0.00;44.90;;;-1.58;54.78;98507.16;5000961;28;20838;-73
2022/03/11 03:48:30;;;;;;;14.30;9.13;;;0.00;44.70;;;-1.58;54.58;98501.84;5010696;28;20451;-75
2022/03/11 03:50:59;;;;;;;13.43;9.80;;;0.00;44.50;;;-1.65;54.84;98502.47;5007480;28;20484;-73
2022/03/11 03:53:26;;;;;;;13.60;10.00;;;0.00;44.30;;;-1.72;54.67;98504.78;5015718;28;20486;-73
2022/03/11 03:55:53;;;;;;;14.43;10.17;;;-0.10;44.40;;;-1.67;54.21;98499.94;5027016;28;20448;-73
2022/03/11 03:58:20;;;;;;;13.10;9.10;;;-0.10;44.00;;;-1.78;54.43;98495.53;5007719;28;21043;-73
2022/03/11 04:00:47;;;;;;;11.47;8.80;;;-0.20;43.90;;;-1.74;53.64;98491.69;4999733;28;20464;-74
2022/03/11 04:03:14;;;;;;;17.13;9.87;;;-0.20;43.60;;;-1.78;53.88;98490.22;5001046;28;20463;-74
2022/03/11 04:05:41;;;;;;;16.93;10.37;;;-0.20;43.50;;;-1.73;52.88;98492.50;5001530;28;21889;-72
2022/03/11 04:08:10;;;;;;;13.80;9.30;;;-0.20;43.10;;;-1.86;53.21;98492.69;5003437;28;20561;-74
2022/03/11 04:10:38;;;;;;;13.93;8.73;;;-0.20;43.10;;;-1.76;53.13;98490.13;5004701;28;20984;-72
2022/03/11 04:13:06;;;;;;;14.53;10.00;;;-0.20;42.80;;;-1.86;53.43;98508.56;5011733;28;20472;-74
2022/03/11 04:15:33;;;;;;;13.87;8.63;;;-0.20;42.80;;;-1.87;53.13;98493.66;5007827;28;20460;-73
2022/03/11 04:18:00;;;;;;;13.33;8.53;;;-0.30;42.70;;;-1.83;53.18;98499.50;5003916;28;20456;-72
2022/03/11 04:20:27;;;;;;;14.70;9.20;;;-0.30;42.60;;;-1.94;52.91;98495.09;5002516;28;20485;-74
2022/03/11 04:22:54;;;;;;;12.63;9.07;;;-0.30;42.60;;;-1.96;52.83;98502.31;5004608;28;20455;-73
2022/03/11 04:25:23;;;;;;;13.03;8.47;;;-0.30;42.40;;;-1.94;52.62;98497.75;5006575;28;20455;-74
2022/03/11 04:27:50;;;;;;;11.40;8.20;;;-0.30;42.30;;;-2.00;52.60;98497.28;5003838;28;20484;-74
2022/03/11 04:30:17;;;;;;;11.43;8.13;;;-0.40;42.10;;;-1.92;51.77;98498.44;5004769;28;20462;-74
2022/03/11 04:32:44;;;;;;;11.57;7.77;;;-0.30;41.80;;;-2.06;52.03;98503.06;5001885;28;20478;-73
2022/03/11 04:35:11;;;;;;;12.53;8.17;;;-0.40;41.60;;;-2.01;52.03;98495.59;5005387;28;20468;-74
2022/03/11 04:37:38;;;;;;;11.57;8.30;;;-0.40;41.60;;;-2.05;51.72;98499.44;5004520;28;20497;-74
2022/03/11 04:40:08;;;;;;;9.80;8.00;;;-0.40;41.50;;;-2.01;51.59;98500.03;5004392;28;20482;-71
2022/03/11 04:42:36;;;;;;;11.23;7.60;;;-0.40;41.40;;;-2.01;51.07;98489.44;4997344;28;20508;-76
2022/03/11 04:45:05;;;;;;;11.80;8.13;;;-0.50;41.10;;;-2.12;51.51;98490.31;5005611;28;20894;-72
2022/03/11 04:47:32;;;;;;;11.03;7.27;;;-0.50;41.00;;;-2.06;51.67;98484.50;5002948;28;21040;-72
2022/03/11 04:49:59;;;;;;;12.27;8.23;;;-0.40;41.10;;;-2.12;51.56;98490.31;5005490;28;20559;-72
2022/03/11 04:52:26;;;;;;;11.50;8.20;;;-0.50;41.00;;;-2.20;51.67;98474.19;5001369;28;20495;-73
2022/03/11 04:54:55;;;;;;;12.30;8.17;;;-0.50;41.10;;;-2.20;51.56;98482.13;4998487;28;20448;-73
2022/03/11 04:57:22;;;;;;;12.27;7.93;;;-0.60;41.10;;;-2.29;52.06;98489.00;4994306;28;20451;-73
2022/03/11 04:59:50;;;;;;;10.47;7.43;;;-0.60;41.30;;;-2.32;52.25;98482.16;5006551;28;20465;-74
2022/03/11 05:02:26;;;;;;;10.67;8.13;;;-0.70;41.40;;;-2.38;52.91;98490.56;5006992;28;20985;-73
2022/03/11 05:04:53;;;;;;;11.17;7.97;;;-0.70;41.80;;;-2.51;54.27;98480.13;5002431;28;20965;-73
2022/03/11 05:07:20;;;;;;;13.63;8.60;;;-0.80;42.30;;;-2.68;54.94;98470.84;5002616;28;20900;-74
2022/03/11 05:09:50;;;;;;;15.90;9.00;;;-0.90;43.00;;;-2.74;55.57;98469.53;5021608;28;20479;-73
2022/03/11 05:12:17;;;;;;;13.07;9.90;;;-1.00;43.40;;;-2.76;56.02;98483.84;5009147;28;20522;-74
2022/03/11 05:14:44;;;;;;;13.13;8.90;;;-1.10;43.70;;;-2.91;56.38;98476.13;5005362;28;20490;-73
2022/03/11 05:17:12;;;;;;;11.83;8.40;;;-1.20;43.90;;;-2.84;56.60;98487.09;5020362;28;20539;-75
2022/03/11 05:19:39;;;;;;;14.73;9.87;;;-1.20;44.00;;;-2.92;56.35;98478.91;5007300;28;20486;-73
2022/03/11 05:22:06;;;;;;;14.70;9.90;;;-1.20;44.00;;;-3.04;56.72;98475.41;5001737;28;21048;-73
2022/03/11 05:24:33;;;;;;;13.50;8.63;;;-1.30;44.10;;;-3.03;56.77;98477.94;5006311;28;20468;-77
2022/03/11 05:27:02;;;;;;;11.00;7.90;;;-1.30;44.10;;;-3.10;57.10;98481.16;5003398;28;20819;-74
2022/03/11 05:29:29;;;;;;;11.77;8.13;;;-1.40;44.10;;;-3.11;56.95;98479.44;5002958;28;20892;-74
2022/03/11 05:31:57;;;;;;;13.20;8.23;;;-1.40;44.10;;;-3.25;56.53;98477.88;5002623;28;20550;-81
2022/03/11 05:34:25;;;;;;;13.30;8.27;;;-1.50;43.80;;;-3.14;56.29;98486.66;5002382;28;20519;-75
2022/03/11 05:36:52;;;;;;;15.10;8.83;;;-1.50;43.70;;;-3.26;56.31;98482.34;5003951;28;20517;-77
2022/03/11 05:39:19;;;;;;;11.50;8.23;;;-1.50;43.70;;;-3.29;56.39;98477.25;5001376;28;20467;-73
2022/03/11 05:41:47;;;;;;;17.03;9.17;;;-1.50;43.50;;;-3.24;56.38;98493.63;5002505;28;20529;-77
2022/03/11 05:44:16;;;;;;;11.60;8.00;;;-1.50;43.40;;;-3.29;56.26;98490.47;4997958;28;20730;-76
2022/03/11 05:46:43;;;;;;;11.97;8.60;;;-1.60;43.40;;;-3.29;56.20;98493.97;5001409;28;20479;-73
2022/03/11 05:49:10;;;;;;;12.70;7.30;;;-1.60;43.30;;;-3.31;56.57;98506.47;5003731;28;22711;-76
2022/03/11 05:51:41;;;;;;;16.83;8.50;;;-1.60;43.40;;;-3.30;56.11;98491.44;5011834;28;20999;-75
2022/03/11 05:54:08;;;;;;;15.07;7.53;;;-1.60;43.30;;;-3.33;55.82;98500.44;5001029;28;22874;-74
2022/03/11 05:56:37;;;;;;;9.80;7.60;;;-1.60;43.40;;;-3.32;55.98;98504.78;5000944;28;21016;-74
2022/03/11 05:59:05;;;;;;;12.60;7.30;;;-1.60;43.20;;;-3.30;55.86;98497.56;5000772;28;20586;-73
2022/03/11 06:01:32;;;;;;;11.60;8.20;;;-1.60;43.10;;;-3.25;55.34;98494.59;5003101;28;20474;-75
2022/03/11 06:04:01;;;;;;;12.63;7.93;;;-1.50;43.10;;;-3.26;55.60;98511.41;5004402;28;20484;-75
2022/03/11 06:06:28;;;;;;;12.30;8.00;;;-1.60;43.10;;;-3.34;56.03;98508.47;5002474;28;20458;-74
2022/03/11 06:08:57;;;;;;;12.03;8.50;;;-1.60;43.10;;;-3.39;55.46;98508.81;5007701;28;20466;-76
2022/03/11 06:11:24;;;;;;;15.00;8.40;;;-1.60;43.20;;;-3.25;55.66;98521.03;5004341;28;20491;-75
2022/03/11 06:13:51;;;;;;;12.07;7.80;;;-1.60;43.10;;;-3.57;55.47;98463.47;5000194;28;21004;-77
2022/03/11 06:16:20;;;;;;;14.20;8.60;;;-1.60;42.90;;;-3.07;55.25;98517.94;4997790;28;20529;-76
2022/03/11 06:18:47;;;;;;;12.23;7.67;;;-1.50;43.10;;;-3.10;54.86;98519.00;5011627;28;20459;-75
2022/03/11 06:21:18;;;;;;;13.80;8.20;;;-1.40;42.80;;;-3.13;54.40;98519.25;5007604;28;20452;-77
2022/03/11 06:23:45;;;;;;;14.30;8.50;;;-1.40;42.50;;;-3.25;54.42;98509.59;4999082;28;20470;-75
2022/03/11 06:26:14;;;;;;;14.13;7.70;;;-1.40;42.20;;;-3.16;54.48;98520.31;5004999;28;20490;-77
2022/03/11 06:28:41;;;;;;;12.07;8.70;;;-1.40;42.20;;;-3.07;54.59;98516.13;5019008;28;21065;-78
2022/03/11 06:31:09;;;;;;;12.27;8.00;;;-1.40;42.30;;;-3.02;54.52;98521.94;5006350;28;20582;-75
2022/03/11 06:33:36;;;;;;;13.70;7.30;;;-1.30;42.30;;;-3.23;53.63;98478.59;5008079;28;20568;-77
2022/03/11 06:36:04;;;;;;;12.10;8.03;;;-1.30;42.30;;;-2.83;53.77;98522.31;5014830;28;21216;-76
2022/03/11 06:38:31;;;;;;;13.50;9.03;;;-1.20;42.00;;;-2.87;53.86;98519.06;5010555;28;20486;-72
2022/03/11 06:40:59;;;;;;;12.80;8.17;;;-1.20;42.00;;;-2.99;53.82;98484.66;5009569;28;20563;-73
2022/03/11 06:43:27;;;;;;;13.67;8.90;;;-1.10;42.10;;;-2.71;53.50;98521.38;5009018;28;20488;-75
2022/03/11 06:45:55;;;;;;;12.80;7.50;;;-1.10;42.00;;;-2.64;53.86;98521.72;5006781;28;20535;-78
2022/03/11 06:48:22;;;;;;;12.93;8.30;;;-1.00;42.30;;;-2.65;53.16;98520.91;5009499;28;20481;-76
2022/03/11 06:50:49;;;;;;;13.43;8.83;;;-1.00;41.70;;;-2.91;53.00;98470.84;5004011;28;20552;-77
2022/03/11 06:53:18;;;;;;;12.20;8.53;;;-0.90;41.60;;;-2.46;52.97;98517.66;5015678;28;20482;-77
2022/03/11 06:55:45;;;;;;;15.20;8.63;;;-0.80;41.50;;;-2.34;52.38;98515.88;5006696;28;20464;-74
2022/03/11 06:58:12;;;;;;;10.87;8.60;;;-0.70;41.40;;;-2.33;51.71;98517.53;4991697;28;20491;-75
2022/03/11 07:00:40;;;;;;;19.20;8.90;;;-0.70;41.10;;;-2.29;51.47;98518.97;5018088;28;20456;-76
2022/03/11 07:03:07;;;;;;;10.37;7.93;;;-0.60;41.00;;;-2.28;51.15;98515.38;5004533;28;20523;-75
2022/03/11 07:05:34;;;;;;;10.00;7.40;;;-0.60;40.70;;;-2.16;51.24;98518.00;5005808;28;20553;-75
2022/03/11 07:08:01;;;;;;;10.97;7.30;;;-0.50;40.60;;;-2.07;50.76;98525.19;5003982;28;20461;-76
2022/03/11 07:10:30;;;;;;;11.70;7.50;;;-0.50;40.60;;;-1.95;50.30;98536.66;4994217;28;20459;-77
2022/03/11 07:12:58;;;;;;;13.43;7.43;;;-0.40;40.50;;;-1.89;50.29;98535.31;4990502;28;20476;-78
2022/03/11 07:15:25;;;;;;;13.55;8.77;;;-0.30;40.20;;;-1.93;49.65;98533.84;5003449;28;20459;-76
2022/03/11 07:17:53;;;;;;;10.10;6.90;;;-0.30;40.00;;;-1.93;49.27;98529.41;5021511;28;20468;-74
2022/03/11 07:20:21;;;;;;;9.17;7.17;;;-0.30;39.50;;;-1.75;49.01;98523.59;5023391;28;20452;-73
2022/03/11 07:22:48;;;;;;;13.80;7.57;;;-0.10;39.60;;;-2.01;48.78;98458.53;5009266;28;20451;-75
2022/03/11 07:25:15;;;;;;;11.90;8.37;;;0.00;39.50;;;-1.59;48.61;98525.84;5009504;28;21718;-72
2022/03/11 07:27:43;;;;;;;15.47;8.40;;;0.00;39.30;;;-1.53;48.09;98516.53;5010097;28;20463;-74
2022/03/11 07:30:11;;;;;;;18.67;8.83;;;0.10;39.30;;;-1.34;48.59;98529.97;5010772;28;20537;-74
2022/03/11 07:32:38;;;;;;;13.80;7.50;;;0.30;39.40;;;-1.25;47.25;98533.66;5012716;28;20440;-75
2022/03/11 07:35:11;;;;;;;12.10;8.00;;;0.30;38.90;;;-1.08;46.51;98513.69;5005700;28;20557;-74
2022/03/11 07:37:40;;;;;;;10.90;7.73;;;0.50;38.80;;;-0.92;45.63;98526.50;5004078;28;20562;-76
2022/03/11 07:40:10;;;;;;;15.93;8.20;;;0.60;38.10;;;-0.80;45.96;98527.25;5009228;28;20459;-74
2022/03/11 07:42:37;;;;;;;10.50;7.30;;;0.80;38.00;;;-0.84;45.85;98519.69;5003231;28;21195;-77
2022/03/11 07:45:05;;;;;;;11.33;7.43;;;0.80;38.00;;;-0.77;45.80;98524.34;5004410;28;20464;-75
2022/03/11 07:47:32;;;;;;;8.97;6.90;;;0.80;37.70;;;-0.80;44.22;98490.13;5001328;28;20975;-77
2022/03/11 07:49:59;;;;;;;9.87;7.20;;;0.90;37.30;;;-0.52;44.28;98529.41;5021075;28;20468;-73
2022/03/11 07:52:27;;;;;;;11.13;6.70;;;1.00;37.20;;;-0.43;44.42;98523.28;5007483;28;20994;-74
2022/03/11 07:54:54;;;;;;;9.60;6.80;;;1.10;37.20;;;-0.13;43.91;98529.53;5005266;28;20476;-74
2022/03/11 07:57:21;;;;;;;11.00;7.20;;;1.30;37.20;;;-0.16;43.08;98524.50;5007197;28;20473;-74
2022/03/11 07:59:48;;;;;;;9.27;6.20;;;1.40;36.40;;;0.04;42.66;98514.78;5006076;28;20528;-73
2022/03/11 08:02:15;;;;;;;13.40;6.47;;;1.50;36.30;;;0.15;41.46;98516.47;5017005;28;20520;-73
2022/03/11 08:04:43;;;;;;;9.83;6.60;;;1.70;36.00;;;0.34;42.31;98522.81;5002287;28;20479;-74
2022/03/11 08:07:11;;;;;;;8.90;6.33;;;1.80;36.10;;;0.50;41.08;98519.63;5013572;28;20463;-73
2022/03/11 08:09:39;;;;;;;8.67;5.67;;;2.00;35.60;;;0.72;40.48;98518.50;5004865;28;20465;-77
2022/03/11 08:12:08;;;;;;;13.20;6.57;;;2.10;35.50;;;0.77;40.38;98505.63;4996646;28;20846;-73
2022/03/11 08:14:35;;;;;;;9.57;6.40;;;2.30;35.30;;;0.26;39.43;98396.75;5002724;28;20477;-72
2022/03/11 08:17:03;;;;;;;9.30;6.23;;;2.40;34.80;;;1.07;38.95;98502.94;5000096;28;21016;-77
2022/03/11 08:19:30;;;;;;;9.00;6.20;;;2.50;34.50;;;1.13;38.42;98495.19;5008573;28;20457;-76
2022/03/11 08:21:57;;;;;;;8.43;5.70;;;2.60;34.30;;;1.16;37.80;98503.91;5004284;28;20494;-75
2022/03/11 08:24:24;;;;;;;7.60;5.70;;;2.70;33.60;;;1.32;37.37;98497.97;5004873;28;20459;-75
2022/03/11 08:26:54;;;;;;;7.20;4.83;;;2.70;33.40;;;1.45;37.30;98492.34;5004460;28;21355;-75
2022/03/11 08:29:23;;;;;;;8.40;6.23;;;2.90;33.40;;;1.55;36.95;98504.63;5021613;28;20570;-74
2022/03/11 08:31:50;;;;;;;9.90;5.27;;;3.00;33.10;;;1.69;36.75;98495.31;5005908;28;20524;-77
2022/03/11 08:34:17;;;;;;;13.53;5.37;;;3.10;32.90;;;1.70;35.79;98494.31;5000000;28;20476;-77
2022/03/11 08:36:45;;;;;;;6.10;4.83;;;3.20;32.50;;;1.85;35.49;98496.50;5008693;28;20544;-76
2022/03/11 08:39:12;;;;;;;6.70;5.00;;;3.30;32.20;;;1.95;35.39;98496.47;5003558;28;20459;-78
2022/03/11 08:41:39;;;;;;;11.37;5.90;;;3.40;32.30;;;2.01;34.76;98495.03;5002248;28;20557;-77
2022/03/11 08:44:08;;;;;;;7.83;5.40;;;3.50;31.60;;;2.03;34.83;98496.56;5004593;28;20488;-77
2022/03/11 08:46:36;;;;;;;13.03;5.47;;;3.50;31.50;;;2.22;34.12;98489.44;5004510;28;20509;-78
2022/03/11 08:49:06;;;;;;;7.47;5.83;;;3.60;31.40;;;2.01;34.36;98465.72;5006119;28;20976;-77
2022/03/11 08:51:33;;;;;;;9.07;4.40;;;3.60;31.10;;;2.03;33.77;98439.72;5002473;28;20455;-75
2022/03/11 08:54:00;;;;;;;13.23;5.97;;;3.70;31.00;;;2.40;33.38;98492.13;5011595;28;20880;-75
2022/03/11 08:56:27;;;;;;;7.87;5.43;;;3.80;30.80;;;2.57;33.68;98497.63;5006686;28;20564;-77
2022/03/11 08:58:56;;;;;;;7.80;6.00;;;3.90;31.10;;;2.72;33.32;98496.09;5005614;28;20989;-80
2022/03/11 09:01:25;;;;;;;8.83;5.30;;;4.10;31.00;;;2.70;33.42;98490.06;4997929;28;21071;-74
2022/03/11 09:03:52;;;;;;;7.60;5.37;;;4.10;30.90;;;2.78;32.95;98494.66;5007580;28;20969;-79
2022/03/11 09:06:19;;;;;;;9.50;6.33;;;4.20;31.10;;;2.69;32.61;98496.41;5007565;28;20533;-82
2022/03/11 09:08:46;;;;;;;10.50;4.97;;;4.20;30.70;;;2.82;32.84;98491.53;5009851;28;20497;-78
2022/03/11 09:11:13;;;;;;;6.07;5.43;;;4.20;30.40;;;2.93;31.92;98479.75;5026328;28;20506;-82
2022/03/11 09:13:43;;;;;;;7.17;5.97;;;4.40;30.10;;;3.04;32.07;98480.50;5006801;28;20557;-75
2022/03/11 09:16:10;;;;;;;9.47;5.17;;;4.40;30.00;;;3.18;31.52;98477.25;5004469;28;20470;-79
2022/03/11 09:18:38;;;;;;;8.60;4.83;;;4.50;30.00;;;3.39;31.47;98468.03;5028822;28;20537;-78
2022/03/11 09:21:05;;;;;;;7.37;4.97;;;4.80;30.30;;;3.55;31.16;98461.94;5008757;28;20545;-81
2022/03/11 09:23:33;;;;;;;6.43;4.73;;;4.90;29.70;;;3.47;31.04;98457.38;5028942;28;20462;-79
2022/03/11 09:26:01;;;;;;;10.07;5.40;;;4.80;29.50;;;3.53;31.14;98456.75;5009734;28;20498;-82
2022/03/11 09:28:28;;;;;;;7.43;5.30;;;4.90;29.70;;;3.68;30.30;98453.50;5009072;28;20467;-74
2022/03/11 09:30:56;;;;;;;6.43;4.90;;;5.10;29.70;;;3.78;31.23;98450.69;5008622;28;20516;-75
2022/03/11 09:33:24;;;;;;;8.90;5.87;;;5.10;29.70;;;3.87;30.53;98452.41;4999606;28;20482;-77
2022/03/11 09:35:52;;;;;;;8.20;5.47;;;5.20;29.70;;;3.89;30.62;98450.41;5009945;28;20558;-74
2022/03/11 09:38:19;;;;;;;8.13;4.97;;;5.30;29.50;;;3.83;29.80;98437.66;5005696;28;20484;-77
2022/03/11 09:40:46;;;;;;;7.03;5.37;;;5.30;29.20;;;3.92;29.46;98450.06;5008479;28;20497;-78
2022/03/11 09:43:14;;;;;;;8.80;5.20;;;5.30;29.10;;;4.06;30.00;98455.81;5007645;28;20554;-76
2022/03/11 09:45:42;;;;;;;8.23;5.50;;;5.40;29.20;;;3.93;29.51;98449.06;5004388;28;20458;-76
2022/03/11 09:48:09;;;;;;;7.73;5.20;;;5.40;28.90;;;4.16;29.91;98456.47;5017323;28;21330;-76
2022/03/11 09:50:37;;;;;;;9.53;4.73;;;5.50;29.10;;;4.21;29.02;98454.16;5006803;28;20819;-79
2022/03/11 09:53:06;;;;;;;6.50;4.30;;;5.50;28.90;;;4.39;29.14;98445.97;5002761;28;20472;-78
2022/03/11 09:55:33;;;;;;;7.00;5.63;;;5.70;29.00;;;4.45;28.86;98430.28;5000203;28;20886;-75
2022/03/11 09:58:00;;;;;;;7.23;4.70;;;5.80;29.00;;;4.68;29.12;98438.50;5019404;28;20495;-78
2022/03/11 10:00:27;;;;;;;7.67;4.80;;;5.90;28.90;;;4.86;28.24;98430.31;5003131;28;20490;-79
2022/03/11 10:02:55;;;;;;;6.10;5.03;;;6.10;28.70;;;4.76;27.91;98433.13;5008217;28;20454;-74
2022/03/11 10:05:23;;;;;;;5.97;4.37;;;6.10;28.30;;;4.89;27.87;98446.03;5006895;28;20466;-79
2022/03/11 10:08:00;;;;;;;7.10;4.60;;;6.20;28.50;;;4.71;27.69;98427.44;5009319;28;20914;-72
2022/03/11 10:10:29;;;;;;;7.60;4.90;;;6.20;28.00;;;4.91;26.77;98432.44;5004653;28;20466;-75
2022/03/11 10:12:56;;;;;;;6.43;5.10;;;6.30;27.90;;;4.86;26.97;98432.13;5012180;28;20457;-74
2022/03/11 10:15:29;;;;;;;7.37;5.17;;;6.20;27.60;;;4.94;27.69;98437.50;5008419;28;20553;-72
2022/03/11 10:17:57;;;;;;;8.43;4.30;;;6.30;27.90;;;4.97;26.64;98427.25;5024202;28;20792;-72
2022/03/11 10:20:25;;;;;;;9.00;4.80;;;6.30;27.70;;;5.06;26.36;98430.75;5006917;28;20451;-72
2022/03/11 10:22:52;;;;;;;8.43;4.20;;;6.40;27.70;;;4.94;26.85;98371.38;5024404;28;20457;-75